Terminal Aerodrome Forecast
Issued by NWS Detroit/Pontiac, MI

Home | Current Version | Previous Version | Text Only | Print | Product List | Glossary On
Versions: 1 2 3 4 5 6 7 8 9 10 11 12 13 14 15 16 17 18 19 20 21 22 23
000
FTUS43 KDTX 290522
TAFFNT
TAF
KFNT 290522Z 2906/3006 VRB04KT P6SM BKN080 OVC100
      TEMPO 2906/2910 -RA
     FM291000 VRB05KT P6SM SCT080 BKN120
      TEMPO 2916/2920 6SM -SHRA SCT050 BKN060
     FM292100 16005KT P6SM BKN050 OVC120=

USA.gov is the U.S. government's official web portal to all federal, state and local government web resources and services.